Time;durP1;ratioP1;P1;durP2;ratioP2;P2;SDS_P1;SDS_P2;PMS_P1;PMS_P2;Temp;Humidity;BMP_temperature;BMP_pressure;BME280_temperature;BME280_humidity;BME280_pressure;Samples;Min_cycle;Max_cycle;Signal;HPM_P1;HPM_P2
2022/10/09 00:00:49;;;;;;;;;;;;;;;;;;5139263;27;19907;-82
2022/10/09 00:03:16;;;;;;;;;;;;;;;;;;5159757;27;19914;-82
2022/10/09 00:05:42;;;;;;;;;;;;;;;;;;5158189;27;20416;-82
2022/10/09 00:08:07;;;;;;;;;;;;;;;;;;5157648;27;19933;-82
2022/10/09 00:10:33;;;;;;;;;;;;;;;;;;5158252;27;19911;-82
2022/10/09 00:12:59;;;;;;;;;;;;;;;;;;5158094;27;20393;-82
2022/10/09 00:15:25;;;;;;;;;;;;;;;;;;5157669;27;20305;-82
2022/10/09 00:17:51;;;;;;;;;;;;;;;;;;5157917;27;19911;-82
2022/10/09 00:20:17;;;;;;;;;;;;;;;;;;5157752;27;19954;-82
2022/10/09 00:22:43;;;;;;;;;;;;;;;;;;5157750;27;19907;-82
2022/10/09 00:25:09;;;;;;;;;;;;;;;;;;5157404;27;19926;-82
2022/10/09 00:27:35;;;;;;;;;;;;;;;;;;5157301;27;19908;-83
2022/10/09 00:30:01;;;;;;;;;;;;;;;;;;5157800;27;20275;-82
2022/10/09 00:32:27;;;;;;;;;;;;;;;;;;5157619;27;19907;-83
2022/10/09 00:34:53;;;;;;;;;;;;;;;;;;5157097;27;19959;-83
2022/10/09 00:37:19;;;;;;;;;;;;;;;;;;5138858;27;19907;-83
2022/10/09 00:39:45;;;;;;;;;;;;;;;;;;5138859;27;19959;-83
2022/10/09 00:42:11;;;;;;;;;;;;;;;;;;5138426;27;19907;-82
2022/10/09 00:44:36;;;;;;;;;;;;;;;;;;5157460;27;20393;-82
2022/10/09 00:47:02;;;;;;;;;;;;;;;;;;5156985;27;20379;-82
2022/10/09 00:49:28;;;;;;;;;;;;;;;;;;5157152;27;19912;-82
2022/10/09 00:51:54;;;;;;;;;;;;;;;;;;5157903;27;19990;-82
2022/10/09 00:54:20;;;;;;;;;;;;;;;;;;5138661;27;19911;-82
2022/10/09 00:56:46;;;;;;;;;;;;;;;;;;5156655;27;19914;-82
2022/10/09 00:59:12;;;;;;;;;;;;;;;;;;5157083;27;20316;-82
2022/10/09 01:01:38;;;;;;;;;;;;;;;;;;5156987;27;19930;-83
2022/10/09 01:04:04;;;;;;;;;;;;;;;;;;5156368;27;19915;-83
2022/10/09 01:06:30;;;;;;;;;;;;;;;;;;5138378;27;20035;-82
2022/10/09 01:08:56;;;;;;;;;;;;;;;;;;5157064;27;19914;-82
2022/10/09 01:11:22;;;;;;;;;;;;;;;;;;5156452;27;19911;-82
2022/10/09 01:13:48;;;;;;;;;;;;;;;;;;5156754;27;19952;-83
2022/10/09 01:16:14;;;;;;;;;;;;;;;;;;5156742;27;19907;-82
2022/10/09 01:18:40;;;;;;;;;;;;;;;;;;5138103;27;19954;-82
2022/10/09 01:21:06;;;;;;;;;;;;;;;;;;5157185;27;20287;-82
2022/10/09 01:23:31;;;;;;;;;;;;;;;;;;5137341;27;20006;-81
2022/10/09 01:25:57;;;;;;;;;;;;;;;;;;5138020;27;19911;-82
2022/10/09 01:28:23;;;;;;;;;;;;;;;;;;5138058;27;19907;-82
2022/10/09 01:30:49;;;;;;;;;;;;;;;;;;5156123;27;19914;-82
2022/10/09 01:33:15;;;;;;;;;;;;;;;;;;5156486;27;20436;-82
2022/10/09 01:35:41;;;;;;;;;;;;;;;;;;5156410;27;19907;-82
2022/10/09 01:38:08;;;;;;;;;;;;;;;;;;5155932;27;19907;-82
2022/10/09 01:40:34;;;;;;;;;;;;;;;;;;5157008;27;19907;-82
2022/10/09 01:43:00;;;;;;;;;;;;;;;;;;5157693;27;19959;-81
2022/10/09 01:45:26;;;;;;;;;;;;;;;;;;5155822;27;20367;-81
2022/10/09 01:47:52;;;;;;;;;;;;;;;;;;5156102;27;19918;-82
2022/10/09 01:50:18;;;;;;;;;;;;;;;;;;5156431;27;19918;-82
2022/10/09 01:52:44;;;;;;;;;;;;;;;;;;5155830;27;20351;-82
2022/10/09 01:55:10;;;;;;;;;;;;;;;;;;5156672;27;20330;-82
2022/10/09 01:57:36;;;;;;;;;;;;;;;;;;5137647;27;19954;-82
2022/10/09 02:00:02;;;;;;;;;;;;;;;;;;5155342;27;19915;-82
2022/10/09 02:02:28;;;;;;;;;;;;;;;;;;5155946;27;19915;-82
2022/10/09 02:04:54;;;;;;;;;;;;;;;;;;5156103;27;19915;-82
2022/10/09 02:07:19;;;;;;;;;;;;;;;;;;5155543;27;19907;-82
2022/10/09 02:09:45;;;;;;;;;;;;;;;;;;5155780;27;20379;-82
2022/10/09 02:12:11;;;;;;;;;;;;;;;;;;5137390;27;20491;-82
2022/10/09 02:14:38;;;;;;;;;;;;;;;;;;5155314;27;19907;-82
2022/10/09 02:17:04;;;;;;;;;;;;;;;;;;5155986;27;19914;-82
2022/10/09 02:19:30;;;;;;;;;;;;;;;;;;5137269;27;19907;-82
2022/10/09 02:21:56;;;;;;;;;;;;;;;;;;5155431;27;19951;-82
2022/10/09 02:24:22;;;;;;;;;;;;;;;;;;5155585;27;20437;-82
2022/10/09 02:26:48;;;;;;;;;;;;;;;;;;5136858;27;20316;-82
2022/10/09 02:29:14;;;;;;;;;;;;;;;;;;5155600;27;19989;-82
2022/10/09 02:31:39;;;;;;;;;;;;;;;;;;5155499;27;19952;-82
2022/10/09 02:34:05;;;;;;;;;;;;;;;;;;5155886;27;19907;-82
2022/10/09 02:36:31;;;;;;;;;;;;;;;;;;5155638;27;19957;-82
2022/10/09 02:38:57;;;;;;;;;;;;;;;;;;5155573;27;19907;-82
2022/10/09 02:41:23;;;;;;;;;;;;;;;;;;5155262;27;19907;-82
2022/10/09 02:43:49;;;;;;;;;;;;;;;;;;5136834;27;19960;-82
2022/10/09 02:46:15;;;;;;;;;;;;;;;;;;5155475;27;19998;-82
2022/10/09 02:48:41;;;;;;;;;;;;;;;;;;5155148;27;19914;-82
2022/10/09 02:51:07;;;;;;;;;;;;;;;;;;5155532;27;19993;-82
2022/10/09 02:53:33;;;;;;;;;;;;;;;;;;5155362;27;19907;-82
2022/10/09 02:55:59;;;;;;;;;;;;;;;;;;5136525;27;19907;-82
2022/10/09 02:58:25;;;;;;;;;;;;;;;;;;5155399;27;20374;-82
2022/10/09 03:00:51;;;;;;;;;;;;;;;;;;5155324;27;20005;-82
2022/10/09 03:03:17;;;;;;;;;;;;;;;;;;5155169;27;19959;-82
2022/10/09 03:05:43;;;;;;;;;;;;;;;;;;5155247;27;19921;-82
2022/10/09 03:08:09;;;;;;;;;;;;;;;;;;5155461;27;19908;-82
2022/10/09 03:10:35;;;;;;;;;;;;;;;;;;5155426;27;19907;-82
2022/10/09 03:13:00;;;;;;;;;;;;;;;;;;5159647;27;20003;-82
2022/10/09 03:15:26;;;;;;;;;;;;;;;;;;5140579;27;20363;-82
2022/10/09 03:17:52;;;;;;;;;;;;;;;;;;5158745;27;20002;-82
2022/10/09 03:20:18;;;;;;;;;;;;;;;;;;5158989;27;19914;-82
2022/10/09 03:22:44;;;;;;;;;;;;;;;;;;5140268;27;19907;-82
2022/10/09 03:25:10;;;;;;;;;;;;;;;;;;5158459;27;20010;-82
2022/10/09 03:27:36;;;;;;;;;;;;;;;;;;5159440;27;20369;-82
2022/10/09 03:30:02;;;;;;;;;;;;;;;;;;5158490;27;20272;-82
2022/10/09 03:32:28;;;;;;;;;;;;;;;;;;5158958;27;20295;-83
2022/10/09 03:34:54;;;;;;;;;;;;;;;;;;5158726;27;19913;-83
2022/10/09 03:37:20;;;;;;;;;;;;;;;;;;5158431;27;19907;-83
2022/10/09 03:39:46;;;;;;;;;;;;;;;;;;5159061;27;19907;-83
2022/10/09 03:42:12;;;;;;;;;;;;;;;;;;5158793;27;20001;-83
2022/10/09 03:44:38;;;;;;;;;;;;;;;;;;5158549;27;20348;-81
2022/10/09 03:47:04;;;;;;;;;;;;;;;;;;5158631;27;19913;-83
2022/10/09 03:49:30;;;;;;;;;;;;;;;;;;5158814;27;19907;-83
2022/10/09 03:51:56;;;;;;;;;;;;;;;;;;5157957;27;19914;-82
2022/10/09 03:54:22;;;;;;;;;;;;;;;;;;5159029;27;19911;-82
2022/10/09 03:56:48;;;;;;;;;;;;;;;;;;5158705;27;19952;-82
2022/10/09 03:59:14;;;;;;;;;;;;;;;;;;5158112;27;19914;-82
2022/10/09 04:01:40;;;;;;;;;;;;;;;;;;5158378;27;19914;-82
2022/10/09 04:04:06;;;;;;;;;;;;;;;;;;5158244;27;19958;-82
2022/10/09 04:06:32;;;;;;;;;;;;;;;;;;5157725;27;19915;-82
2022/10/09 04:08:58;;;;;;;;;;;;;;;;;;5158232;27;19907;-83
2022/10/09 04:11:24;;;;;;;;;;;;;;;;;;5158034;27;19986;-83
2022/10/09 04:13:50;;;;;;;;;;;;;;;;;;5157790;27;19966;-82
2022/10/09 04:16:16;;;;;;;;;;;;;;;;;;5158108;27;19908;-83
2022/10/09 04:18:42;;;;;;;;;;;;;;;;;;5139464;27;19980;-83
2022/10/09 04:21:08;;;;;;;;;;;;;;;;;;5139677;27;19907;-83
2022/10/09 04:23:34;;;;;;;;;;;;;;;;;;5157634;27;19907;-82
2022/10/09 04:26:00;;;;;;;;;;;;;;;;;;5158641;27;19907;-83
2022/10/09 04:28:26;;;;;;;;;;;;;;;;;;5157281;27;19971;-83
2022/10/09 04:30:52;;;;;;;;;;;;;;;;;;5139130;27;19911;-82
2022/10/09 04:33:18;;;;;;;;;;;;;;;;;;5157468;27;19914;-83
2022/10/09 04:35:44;;;;;;;;;;;;;;;;;;5157593;27;19993;-83
2022/10/09 04:38:10;;;;;;;;;;;;;;;;;;5157586;27;19907;-83
2022/10/09 04:40:36;;;;;;;;;;;;;;;;;;5138605;27;19914;-83
2022/10/09 04:43:02;;;;;;;;;;;;;;;;;;5157386;27;19954;-83
2022/10/09 04:45:28;;;;;;;;;;;;;;;;;;5157644;27;19919;-82
2022/10/09 04:47:54;;;;;;;;;;;;;;;;;;5157078;27;20374;-83
2022/10/09 04:50:19;;;;;;;;;;;;;;;;;;5139845;27;20322;-83
2022/10/09 04:52:45;;;;;;;;;;;;;;;;;;5157228;27;20010;-83
2022/10/09 04:55:11;;;;;;;;;;;;;;;;;;5156820;27;19911;-83
2022/10/09 04:57:37;;;;;;;;;;;;;;;;;;5157176;27;19951;-83
2022/10/09 05:00:03;;;;;;;;;;;;;;;;;;5157309;27;19914;-83
2022/10/09 05:02:29;;;;;;;;;;;;;;;;;;5156912;27;20382;-84
2022/10/09 05:04:56;;;;;;;;;;;;;;;;;;5157332;27;20278;-83
2022/10/09 05:07:22;;;;;;;;;;;;;;;;;;5156975;27;19918;-82
2022/10/09 05:09:48;;;;;;;;;;;;;;;;;;5138061;27;19907;-82
2022/10/09 05:12:14;;;;;;;;;;;;;;;;;;5138297;27;19907;-83
2022/10/09 05:14:39;;;;;;;;;;;;;;;;;;5156810;27;19921;-83
2022/10/09 05:17:06;;;;;;;;;;;;;;;;;;5156535;27;20385;-84
2022/10/09 05:19:32;;;;;;;;;;;;;;;;;;5156715;27;19926;-83
2022/10/09 05:21:58;;;;;;;;;;;;;;;;;;5156737;27;19946;-83
2022/10/09 05:24:24;;;;;;;;;;;;;;;;;;5155946;27;19919;-83
2022/10/09 05:26:50;;;;;;;;;;;;;;;;;;5156810;27;19911;-83
2022/10/09 05:29:16;;;;;;;;;;;;;;;;;;5156490;27;19933;-84
2022/10/09 05:31:42;;;;;;;;;;;;;;;;;;5156447;27;19911;-83
2022/10/09 05:34:08;;;;;;;;;;;;;;;;;;5156148;27;19907;-83
2022/10/09 05:36:34;;;;;;;;;;;;;;;;;;5156112;27;19967;-83
2022/10/09 05:39:00;;;;;;;;;;;;;;;;;;5156329;27;19907;-81
2022/10/09 05:41:27;;;;;;;;;;;;;;;;;;5156861;27;19930;-81
2022/10/09 05:43:53;;;;;;;;;;;;;;;;;;5137288;27;19911;-83
2022/10/09 05:46:19;;;;;;;;;;;;;;;;;;5156393;27;19918;-83
2022/10/09 05:48:45;;;;;;;;;;;;;;;;;;5159716;27;19950;-82
2022/10/09 05:51:11;;;;;;;;;;;;;;;;;;5155720;27;19946;-84
2022/10/09 05:53:37;;;;;;;;;;;;;;;;;;5156045;27;19908;-82
2022/10/09 05:56:03;;;;;;;;;;;;;;;;;;5137457;27;19907;-83
2022/10/09 05:58:29;;;;;;;;;;;;;;;;;;5137353;27;20002;-83
2022/10/09 06:00:55;;;;;;;;;;;;;;;;;;5155982;27;19907;-85
2022/10/09 06:03:20;;;;;;;;;;;;;;;;;;5155999;27;19907;-82
2022/10/09 06:05:46;;;;;;;;;;;;;;;;;;5155629;27;19915;-83
2022/10/09 06:08:12;;;;;;;;;;;;;;;;;;5137273;27;19911;-82
2022/10/09 06:10:38;;;;;;;;;;;;;;;;;;5156151;27;19917;-82
2022/10/09 06:13:04;;;;;;;;;;;;;;;;;;5155649;27;19914;-82
2022/10/09 06:15:30;;;;;;;;;;;;;;;;;;5155784;27;20107;-82
2022/10/09 06:17:56;;;;;;;;;;;;;;;;;;5155689;27;19907;-82
2022/10/09 06:20:22;;;;;;;;;;;;;;;;;;5155321;27;19911;-82
2022/10/09 06:22:48;;;;;;;;;;;;;;;;;;5155815;27;20363;-83
2022/10/09 06:25:14;;;;;;;;;;;;;;;;;;5155572;27;19925;-82
2022/10/09 06:27:40;;;;;;;;;;;;;;;;;;5155272;27;19907;-83
2022/10/09 06:30:06;;;;;;;;;;;;;;;;;;5155648;27;19907;-82
2022/10/09 06:32:32;;;;;;;;;;;;;;;;;;5155545;27;19911;-83
2022/10/09 06:34:58;;;;;;;;;;;;;;;;;;5155135;27;19913;-83
2022/10/09 06:37:24;;;;;;;;;;;;;;;;;;5136967;27;20425;-82
2022/10/09 06:39:50;;;;;;;;;;;;;;;;;;5155226;27;19907;-83
2022/10/09 06:42:16;;;;;;;;;;;;;;;;;;5155552;27;19952;-82
2022/10/09 06:44:44;;;;;;;;;;;;;;;;;;5155319;27;19952;-81
2022/10/09 06:47:10;;;;;;;;;;;;;;;;;;5158326;27;19942;-83
2022/10/09 06:49:36;;;;;;;;;;;;;;;;;;5159819;27;19915;-82
2022/10/09 06:54:45;;;;;;;;;;;;;;;;;;5111781;27;20276;-83
2022/10/09 06:57:11;;;;;;;;;;;;;;;;;;5111859;28;20010;-81
2022/10/09 06:59:37;;;;;;;;;;;;;;;;;;5110496;28;19931;-82
2022/10/09 07:02:03;;;;;;;;;;;;;;;;;;5110126;28;19940;-84
2022/10/09 07:04:29;;;;;;;;;;;;;;;;;;5111828;28;19915;-82
2022/10/09 07:06:55;;;;;;;;;;;;;;;;;;5111599;28;19908;-82
2022/10/09 07:09:21;;;;;;;;;;;;;;;;;;5111069;28;19922;-82
2022/10/09 07:11:50;;;;;;;;;;;;;;;;;;5110352;28;19908;-83
2022/10/09 07:14:16;;;;;;;;;;;;;;;;;;5110129;28;19923;-82
2022/10/09 07:18:10;;;;;;;;;;;;;;;;;;5132454;27;20358;-83
2022/10/09 07:20:36;;;;;;;;;;;;;;;;;;5132356;28;19951;-82
2022/10/09 07:23:02;;;;;;;;;;;;;;;;;;5131903;28;19914;-82
2022/10/09 07:27:01;;;;;;;;;;;;;;;;;;5111996;27;19912;-82
2022/10/09 07:29:27;;;;;;;;;;;;;;;;;;5111364;28;19994;-82
2022/10/09 07:31:53;;;;;;;;;;;;;;;;;;5110807;28;19995;-83
2022/10/09 07:34:19;;;;;;;;;;;;;;;;;;5112243;28;19957;-83
2022/10/09 07:39:20;;;;;;;;;;;;;;;;;;5112364;27;20461;-83
2022/10/09 07:41:46;;;;;;;;;;;;;;;;;;5111899;28;19908;-82
2022/10/09 07:44:12;;;;;;;;;;;;;;;;;;5111343;28;19910;-82
2022/10/09 07:51:14;;;;;;;;;;;;;;;;;;5111770;27;20380;-82
2022/10/09 07:53:40;;;;;;;;;;;;;;;;;;5112076;28;20011;-83
2022/10/09 07:57:44;;;;;;;;;;;;;;;;;;5111693;27;19919;-82
2022/10/09 08:02:16;;;;;;;;;;;;;;;;;;5112406;27;20131;-82
2022/10/09 08:04:42;;;;;;;;;;;;;;;;;;5111961;28;19908;-82
2022/10/09 08:09:27;;;;;;;;;;;;;;;;;;5091801;27;19916;-82
2022/10/09 08:12:46;;;;;;;;;;;;;;;;;;5111421;27;19918;-82
2022/10/09 08:15:12;;;;;;;;;;;;;;;;;;5111765;28;20002;-83
2022/10/09 08:17:38;;;;;;;;;;;;;;;;;;5111769;28;20356;-84
2022/10/09 08:20:04;;;;;;;;;;;;;;;;;;5111334;28;19965;-82
2022/10/09 08:22:30;;;;;;;;;;;;;;;;;;5110628;28;19908;-83
2022/10/09 08:24:56;;;;;;;;;;;;;;;;;;5111651;28;19912;-83
2022/10/09 08:27:22;;;;;;;;;;;;;;;;;;5111204;28;19915;-82
2022/10/09 08:29:48;;;;;;;;;;;;;;;;;;5111558;28;19944;-82
2022/10/09 08:34:43;;;;;;;;;;;;;;;;;;5091884;27;20295;-84
2022/10/09 08:37:09;;;;;;;;;;;;;;;;;;5091595;28;20002;-84
2022/10/09 08:39:35;;;;;;;;;;;;;;;;;;5091074;28;19915;-82
2022/10/09 08:42:45;;;;;;;;;;;;;;;;;;5076047;28;20400;-83
2022/10/09 08:45:11;;;;;;;;;;;;;;;;;;5071359;28;20335;-82
2022/10/09 08:49:00;;;;;;;;;;;;;;;;;;5112414;27;20461;-84
2022/10/09 08:56:03;;;;;;;;;;;;;;;;;;5112779;27;19938;-83
2022/10/09 08:58:29;;;;;;;;;;;;;;;;;;5110602;28;20415;-82
2022/10/09 09:00:55;;;;;;;;;;;;;;;;;;5110234;28;19953;-83
2022/10/09 09:03:36;;;;;;;;;;;;;;;;;;5112136;27;20389;-83
2022/10/09 09:06:01;;;;;;;;;;;;;;;;;;5111781;28;19912;-84
2022/10/09 09:08:27;;;;;;;;;;;;;;;;;;5111449;28;19903;-82
2022/10/09 09:10:53;;;;;;;;;;;;;;;;;;5112358;28;19919;-82
2022/10/09 09:15:25;;;;;;;;;;;;;;;;;;5111950;27;19912;-82
2022/10/09 09:17:51;;;;;;;;;;;;;;;;;;5110479;28;20295;-82
2022/10/09 09:20:17;;;;;;;;;;;;;;;;;;5111839;28;19974;-82
2022/10/09 09:22:43;;;;;;;;;;;;;;;;;;5111425;28;19939;-82
2022/10/09 09:25:09;;;;;;;;;;;;;;;;;;5111694;28;19908;-83
2022/10/09 09:27:38;;;;;;;;;;;;;;;;;;5111678;28;19926;-82
2022/10/09 09:30:04;;;;;;;;;;;;;;;;;;5111596;28;19908;-82
2022/10/09 09:32:30;;;;;;;;;;;;;;;;;;5111762;28;20295;-82
2022/10/09 09:34:56;;;;;;;;;;;;;;;;;;5110467;28;19923;-83
2022/10/09 09:37:22;;;;;;;;;;;;;;;;;;5111331;28;19908;-83
2022/10/09 09:39:48;;;;;;;;;;;;;;;;;;5112295;28;19916;-82
2022/10/09 09:42:14;;;;;;;;;;;;;;;;;;5112372;28;20049;-82
2022/10/09 09:44:40;;;;;;;;;;;;;;;;;;5109830;28;19912;-82
2022/10/09 09:48:54;;;;;;;;;;;;;;;;;;5111346;27;20356;-82
2022/10/09 09:51:20;;;;;;;;;;;;;;;;;;5111628;28;19930;-82
2022/10/09 09:53:46;;;;;;;;;;;;;;;;;;5111748;28;19908;-82
2022/10/09 09:56:12;;;;;;;;;;;;;;;;;;5112147;28;19904;-82
2022/10/09 09:58:38;;;;;;;;;;;;;;;;;;5111632;28;19904;-82
2022/10/09 10:01:05;;;;;;;;;;;;;;;;;;5112005;28;19908;-82
2022/10/09 10:03:32;;;;;;;357.23;211.13;;;;;;;;;;5111496;28;20838;-82
2022/10/09 10:05:58;;;;;;;;;;;;;;;;;;5111051;28;20036;-81
2022/10/09 10:08:24;;;;;;;;;;;;;;;;;;5111405;28;20027;-82
2022/10/09 10:10:50;;;;;;;;;;;;;;;;;;5110391;28;19904;-83
2022/10/09 10:13:16;;;;;;;;;;;;;;;;;;5110891;28;19904;-82
2022/10/09 10:15:42;;;;;;;;;;;;;;;;;;5111398;28;19927;-82
2022/10/09 10:18:08;;;;;;;;;;;;;;;;;;5111101;28;20360;-82
2022/10/09 10:20:34;;;;;;;;;;;;;;;;;;5111267;28;20283;-83
2022/10/09 10:24:12;;;;;;;;;;;;;;;;;;5091865;27;19916;-82
2022/10/09 10:26:38;;;;;;;;;;;;;;;;;;5091053;28;19991;-82
2022/10/09 10:30:12;;;;;;;;;;;;;;;;;;5112286;27;19923;-82
2022/10/09 10:32:38;;;;;;;;;;;;;;;;;;5111509;28;20326;-82
2022/10/09 10:35:04;;;;;;;;;;;;;;;;;;5112240;28;19953;-82
2022/10/09 10:37:30;;;;;;;;;;;;;;;;;;5112020;28;20348;-83
2022/10/09 10:39:57;;;;;;;;;;;;;;;;;;5111425;28;20284;-82
2022/10/09 10:42:23;;;;;;;;;;;;;;;;;;5111687;28;19995;-83
2022/10/09 10:44:48;;;;;;;;;;;;;;;;;;5110466;28;19908;-82
2022/10/09 10:47:14;;;;;;;;;;;;;;;;;;5111438;28;20372;-82
2022/10/09 10:49:40;;;;;;;;;;;;;;;;;;5111512;28;20059;-83
2022/10/09 10:52:06;;;;;;;;;;;;;;;;;;5111498;28;19908;-83
2022/10/09 10:54:33;;;;;;;;;;;;;;;;;;5111010;28;19912;-83
2022/10/09 10:56:58;;;;;;;;;;;;;;;;;;5111729;28;19935;-82
2022/10/09 10:59:24;;;;;;;;;;;;;;;;;;5111105;28;19997;-83
2022/10/09 11:01:51;;;;;;;;;;;;;;;;;;5110968;28;19908;-82
2022/10/09 11:04:17;;;;;;;;;;;;;;;;;;5111376;28;19943;-83
2022/10/09 11:06:43;;;;;;;;;;;;;;;;;;5111163;28;19915;-83
2022/10/09 11:09:09;;;;;;;;;;;;;;;;;;5110718;28;19916;-83
2022/10/09 11:11:36;;;;;;;;;;;;;;;;;;5111089;28;19958;-83
2022/10/09 11:14:02;;;;;;;;;;;;;;;;;;5111155;28;20372;-83
2022/10/09 11:16:28;;;;;;;;;;;;;;;;;;5110551;28;19994;-83
2022/10/09 11:18:54;;;;;;;;;;;;;;;;;;5110956;28;19908;-83
2022/10/09 11:21:20;;;;;;;;;;;;;;;;;;5110559;28;19999;-82
2022/10/09 11:23:46;;;;;;;;;;;;;;;;;;5110823;28;19916;-84
2022/10/09 11:26:12;;;;;;;;;;;;;;;;;;5110808;28;19912;-83
2022/10/09 11:28:38;;;;;;;;;;;;;;;;;;5110147;28;19963;-83
2022/10/09 11:31:04;;;;;;;;;;;;;;;;;;5110820;28;19916;-83
2022/10/09 11:33:30;;;;;;;;;;;;;;;;;;5110785;28;19908;-83
2022/10/09 11:35:56;;;;;;;;;;;;;;;;;;5110699;28;20407;-83
2022/10/09 11:38:22;;;;;;;;;;;;;;;;;;5110539;28;20269;-83
2022/10/09 11:40:47;;;;;;;;;;;;;;;;;;5101204;28;19912;-83
2022/10/09 11:43:13;;;;;;;;;;;;;;;;;;5096511;28;19916;-82
2022/10/09 11:45:40;;;;;;;;;;;;;;;;;;5096883;28;19908;-82
2022/10/09 11:48:06;;;;;;;;;;;;;;;;;;5096733;28;19913;-83
2022/10/09 11:50:32;;;;;;;;;;;;;;;;;;5096472;28;19920;-83
2022/10/09 11:52:58;;;;;;;;;;;;;;;;;;5096903;28;20006;-83
2022/10/09 11:55:24;;;;;;;;;;;;;;;;;;5096678;28;20352;-83
2022/10/09 11:57:50;;;;;;;;;;;;;;;;;;5096248;28;19912;-83
2022/10/09 12:00:16;;;;;;;;;;;;;;;;;;5098431;28;19930;-83
2022/10/09 12:02:42;;;;;;;;;;;;;;;;;;5102574;28;20372;-84
2022/10/09 12:05:08;;;;;;;;;;;;;;;;;;5096082;28;19912;-83
2022/10/09 12:07:34;;;;;;;;;;;;;;;;;;5096439;28;19915;-83
2022/10/09 12:10:00;;;;;;;;;;;;;;;;;;5096383;28;19920;-83
2022/10/09 12:12:25;;;;;;;;;;;;;;;;;;5094632;28;20442;-83
2022/10/09 12:14:51;;;;;;;;;;;;;;;;;;5096281;28;20093;-83
2022/10/09 12:17:17;;;;;;;;;;;;;;;;;;5096577;28;19916;-83
2022/10/09 12:19:43;;;;;;;;;;;;;;;;;;5095813;28;19908;-83
2022/10/09 12:22:09;;;;;;;;;;;;;;;;;;5096218;28;19908;-83
2022/10/09 12:24:35;;;;;;;;;;;;;;;;;;5096034;28;20003;-83
2022/10/09 12:27:02;;;;;;;;;;;;;;;;;;5096365;28;19908;-83
2022/10/09 12:29:28;;;;;;;;;;;;;;;;;;5094503;28;19927;-83
2022/10/09 12:31:53;;;;;;;;;;;;;;;;;;5095930;28;19908;-84
2022/10/09 12:34:19;;;;;;;;;;;;;;;;;;5095954;28;19954;-84
2022/10/09 12:36:45;;;;;;;;;;;;;;;;;;5096116;28;19948;-83
2022/10/09 12:39:11;;;;;;;;;;;;;;;;;;5095432;28;19915;-82
2022/10/09 12:41:37;;;;;;;;;;;;;;;;;;5095779;28;20429;-82
2022/10/09 12:44:03;;;;;;;;;;;;;;;;;;5096346;28;19908;-82
2022/10/09 12:46:29;;;;;;;;;;;;;;;;;;5095289;28;19915;-82
2022/10/09 12:48:55;;;;;;;;;;;;;;;;;;5095772;28;20283;-83
2022/10/09 12:51:22;;;;;;;;;;;;;;;;;;5095227;28;19908;-83
2022/10/09 12:53:48;;;;;;;;;;;;;;;;;;5093517;28;20276;-82
2022/10/09 12:56:14;;;;;;;;;;;;;;;;;;5095527;28;19909;-83
2022/10/09 12:58:42;;;;;;;;;;;;;;;;;;5094158;28;19958;-82
2022/10/09 13:01:08;;;;;;;;;;;;;;;;;;5093878;28;19947;-83
2022/10/09 13:03:34;;;;;;;;;;;;;;;;;;5095705;28;20400;-83
2022/10/09 13:06:00;;;;;;;;;;;;;;;;;;5094170;28;20265;-83
2022/10/09 13:08:26;;;;;;;;;;;;;;;;;;5094761;28;19916;-83
2022/10/09 13:10:51;;;;;;;;;;;;;;;;;;5096015;28;20082;-83
2022/10/09 13:13:17;;;;;;;;;;;;;;;;;;5093903;28;19915;-82
2022/10/09 13:15:43;;;;;;;;;;;;;;;;;;5094791;28;19916;-82
2022/10/09 13:18:09;;;;;;;;;;;;;;;;;;5095361;28;19908;-83
2022/10/09 13:20:35;;;;;;;;;;;;;;;;;;5095203;28;19958;-83
2022/10/09 13:23:01;;;;;;;;;;;;;;;;;;5094726;28;20367;-83
2022/10/09 13:25:27;;;;;;;;;;;;;;;;;;5094938;28;20253;-83
2022/10/09 13:27:53;;;;;;;;;;;;;;;;;;5094506;28;19908;-83
2022/10/09 13:30:19;;;;;;;;;;;;;;;;;;5095185;28;19936;-83
2022/10/09 13:32:45;;;;;;;;;;;;;;;;;;5095660;28;19908;-83
2022/10/09 13:35:11;;;;;;;;;;;;;;;;;;5094449;28;19954;-84
2022/10/09 13:37:37;;;;;;;;;;;;;;;;;;5095077;28;19908;-83
2022/10/09 13:40:04;;;;;;;;;;;;;;;;;;5094668;28;19908;-83
2022/10/09 13:42:30;;;;;;;;;;;;;;;;;;5094336;28;19915;-81
2022/10/09 13:44:56;;;;;;;;;;;;;;;;;;5093330;28;19908;-81
2022/10/09 13:47:22;;;;;;;;;;;;;;;;;;5093464;28;19912;-83
2022/10/09 13:49:48;;;;;;;;;;;;;;;;;;5094293;28;19992;-83
2022/10/09 13:52:14;;;;;;;;;;;;;;;;;;5093248;28;19912;-83
2022/10/09 13:54:40;;;;;;;;;;;;;;;;;;5093207;28;19909;-83
2022/10/09 13:57:06;;;;;;;;;;;;;;;;;;5094053;28;19915;-83
2022/10/09 13:59:32;;;;;;;;;;;;;;;;;;5094280;28;20283;-83
2022/10/09 14:01:58;;;;;;;;;;;;;;;;;;5094360;28;19908;-82
2022/10/09 14:04:24;;;;;;;;;;;;;;;;;;5093572;28;19908;-82
2022/10/09 14:06:50;;;;;;;;;;;;;;;;;;5094439;28;19998;-82
2022/10/09 14:09:16;;;;;;;;;;;;;;;;;;5094305;28;20387;-82
2022/10/09 14:11:42;;;;;;;;;;;;;;;;;;5093800;28;19912;-83
2022/10/09 14:14:08;;;;;;;;;;;;;;;;;;5094339;28;19954;-82
2022/10/09 14:16:34;;;;;;;;;;;;;;;;;;5094215;28;19967;-82
2022/10/09 14:19:00;;;;;;;;;;;;;;;;;;5093690;28;19970;-82
2022/10/09 14:21:26;;;;;;;;;;;;;;;;;;5094253;28;19908;-82
2022/10/09 14:23:52;;;;;;;;;;;;;;;;;;5094714;28;20327;-82
2022/10/09 14:26:18;;;;;;;;;;;;;;;;;;5093844;28;19970;-81
2022/10/09 14:28:44;;;;;;;;;;;;;;;;;;5093802;28;20324;-84
2022/10/09 14:31:10;;;;;;;;;;;;;;;;;;5092723;28;20300;-83
2022/10/09 14:33:35;;;;;;;;;;;;;;;;;;5093762;28;19915;-83
2022/10/09 14:36:01;;;;;;;;;;;;;;;;;;5094019;28;19954;-84
2022/10/09 14:38:27;;;;;;;;;;;;;;;;;;5093703;28;19908;-83
2022/10/09 14:40:53;;;;;;;;;;;;;;;;;;5093862;28;19959;-84
2022/10/09 14:43:21;;;;;;;;;;;;;;;;;;5093883;28;19912;-83
2022/10/09 14:45:47;;;;;;;;;;;;;;;;;;5093768;28;20369;-83
2022/10/09 14:48:13;;;;;;;;;;;;;;;;;;5092588;28;19916;-83
2022/10/09 14:50:39;;;;;;;;;;;;;;;;;;5092686;28;19948;-84
2022/10/09 14:56:42;;;;;;;;;;;;;;;;;;5091668;28;19916;-82
2022/10/09 15:00:01;;;;;;;;;;;;;;;;;;5111554;27;19923;-82
2022/10/09 15:03:39;;;;;;;;;;;;;;;;;;5112371;27;19938;-84
2022/10/09 15:06:05;;;;;;;;;;;;;;;;;;5111930;28;20427;-82
2022/10/09 15:08:31;;;;;;;;;;;;;;;;;;5111425;28;19915;-83
2022/10/09 15:10:57;;;;;;;;;;;;;;;;;;5111756;28;20011;-81
2022/10/09 15:13:23;;;;;;;;;;;;;;;;;;5111555;28;19908;-82
2022/10/09 15:15:49;;;;;;;;;;;;;;;;;;5111641;28;19959;-81
2022/10/09 15:18:15;;;;;;;;;;;;;;;;;;5112033;28;20395;-82
2022/10/09 15:20:40;;;;;;;;;;;;;;;;;;5111474;28;20241;-82
2022/10/09 15:23:06;;;;;;;;;;;;;;;;;;5111372;28;19938;-82
2022/10/09 15:25:32;;;;;;;;;;;;;;;;;;5111669;28;19915;-82
2022/10/09 15:27:59;;;;;;;;;;;;;;;;;;5110980;28;19947;-83
2022/10/09 15:31:04;;;;;;;;;;;;;;;;;;5112107;27;19922;-82
2022/10/09 15:34:55;;;;;;;;;;;;;;;;;;5111402;27;19923;-81
2022/10/09 15:37:21;;;;;;;;;;;;;;;;;;5111755;28;20428;-82
2022/10/09 15:39:47;;;;;;;;;;;;;;;;;;5111857;28;19908;-82
2022/10/09 15:42:46;;;;;;;;;;;;;;;;;;5111861;27;19923;-83
2022/10/09 15:45:12;;;;;;;;;;;;;;;;;;5111792;28;20003;-83
2022/10/09 15:47:38;;;;;;;;;;;;;;;;;;5111861;28;19915;-83
2022/10/09 15:50:04;;;;;;;;;;;;;;;;;;5111410;28;19908;-82
2022/10/09 15:52:30;;;;;;;;;;;;;;;;;;5112026;28;19950;-82
2022/10/09 15:54:56;;;;;;;;;;;;;;;;;;5110321;28;19912;-82
2022/10/09 15:59:36;;;;;;;;;;;;;;;;;;5111992;27;19912;-82
2022/10/09 16:02:02;;;;;;;;;;;;;;;;;;5111804;28;19919;-82
2022/10/09 16:04:28;;;;;;;;;;;;;;;;;;5111316;28;19908;-83
2022/10/09 16:06:54;;;;;;;;;;;;;;;;;;5111923;28;19908;-83
2022/10/09 16:09:20;;;;;;;;;;;;;;;;;;5110401;28;19915;-83
2022/10/09 16:11:46;;;;;;;;;;;;;;;;;;5111270;28;19908;-83
2022/10/09 16:14:12;;;;;;;;;;;;;;;;;;5111592;28;20026;-83
2022/10/09 16:16:38;;;;;;;;;;;;;;;;;;5111415;28;19908;-82
2022/10/09 16:19:04;;;;;;;;;;;;;;;;;;5109905;28;19923;-82
2022/10/09 16:21:30;;;;;;;;;;;;;;;;;;5111456;28;19908;-82
2022/10/09 16:23:56;;;;;;;;;;;;;;;;;;5111026;28;19908;-82
2022/10/09 16:29:30;;;;;;;;;;;;;;;;;;5112819;27;19916;-81
2022/10/09 16:31:56;;;;;;;;;;;;;;;;;;5111424;28;19912;-82
2022/10/09 16:34:22;;;;;;;;;;;;;;;;;;5111810;28;19908;-84
2022/10/09 16:36:48;;;;;;;;;;;;;;;;;;5111935;28;19915;-82
2022/10/09 16:42:42;;;;;;;;;;;;;;;;;;5092163;27;19912;-82
2022/10/09 16:45:08;;;;;;;;;;;;;;;;;;5089802;28;20329;-84
2022/10/09 16:47:34;;;;;;;;;;;;;;;;;;5091345;28;19909;-83
2022/10/09 16:51:37;;;;;;;;;;;;;;;;;;5112416;27;19912;-82
2022/10/09 16:54:03;;;;;;;;;;;;;;;;;;5112355;28;19998;-83
2022/10/09 16:56:30;;;;;;;;;;;;;;;;;;5112037;28;19930;-82
2022/10/09 16:58:56;;;;;;;;;;;;;;;;;;5111177;28;20422;-82
2022/10/09 17:01:22;;;;;;;;;;;;;;;;;;5111546;28;19912;-82
2022/10/09 17:03:48;;;;;;;;;;;;;;;;;;5111656;28;19909;-83
2022/10/09 17:06:14;;;;;;;;;;;;;;;;;;5111385;28;19912;-83
2022/10/09 17:09:17;;;;;;;;;;;;;;;;;;5112022;27;19912;-82
2022/10/09 17:13:59;;;;;;;;;;;;;;;;;;5111983;27;19922;-82
2022/10/09 17:16:25;;;;;;;;;;;;;;;;;;5112062;28;20010;-83
2022/10/09 17:18:53;;;;;;;;;;;;;;;;;;5111681;28;19908;-83
2022/10/09 17:21:19;;;;;;;;;;;;;;;;;;5111335;28;19954;-82
2022/10/09 17:28:20;;;;;;;;;;;;;;;;;;5111958;27;19916;-83
2022/10/09 17:32:13;;;;;;;;;;;;;;;;;;5091680;27;19916;-82
2022/10/09 17:34:44;;;;;;;;;;;;;;;;;;5091020;28;19934;-82
2022/10/09 17:37:10;;;;;;;;;;;;;;;;;;5091707;28;19954;-82